sensor_id;sensor_type;location;lat;lon;timestamp;temperature;humidity
74946;HTU21D;63509;45.250;38.102;2024-02-15T00:02:22;10.26;67.41
74946;HTU21D;63509;45.250;38.102;2024-02-15T00:04:48;10.24;67.44
74946;HTU21D;63509;45.250;38.102;2024-02-15T00:07:15;10.20;67.46
74946;HTU21D;63509;45.250;38.102;2024-02-15T00:09:45;10.16;67.49
74946;HTU21D;63509;45.250;38.102;2024-02-15T00:12:11;10.13;67.52
74946;HTU21D;63509;45.250;38.102;2024-02-15T00:14:38;10.09;67.57
74946;HTU21D;63509;45.250;38.102;2024-02-15T00:17:04;10.04;67.62
74946;HTU21D;63509;45.250;38.102;2024-02-15T00:19:30;10.00;67.65
74946;HTU21D;63509;45.250;38.102;2024-02-15T00:21:57;9.97;67.67
74946;HTU21D;63509;45.250;38.102;2024-02-15T00:24:23;9.93;67.72
74946;HTU21D;63509;45.250;38.102;2024-02-15T00:26:51;9.89;67.75
74946;HTU21D;63509;45.250;38.102;2024-02-15T00:29:19;9.86;67.80
74946;HTU21D;63509;45.250;38.102;2024-02-15T00:31:45;9.83;67.82
74946;HTU21D;63509;45.250;38.102;2024-02-15T00:34:12;9.78;67.81
74946;HTU21D;63509;45.250;38.102;2024-02-15T00:36:42;9.74;67.87
74946;HTU21D;63509;45.250;38.102;2024-02-15T00:39:10;9.69;67.94
74946;HTU21D;63509;45.250;38.102;2024-02-15T00:41:37;9.66;67.94
74946;HTU21D;63509;45.250;38.102;2024-02-15T00:44:11;9.62;67.93
74946;HTU21D;63509;45.250;38.102;2024-02-15T00:46:38;9.55;67.97
74946;HTU21D;63509;45.250;38.102;2024-02-15T00:49:04;9.51;68.07
74946;HTU21D;63509;45.250;38.102;2024-02-15T00:51:34;9.47;68.13
74946;HTU21D;63509;45.250;38.102;2024-02-15T00:54:01;9.42;68.10
74946;HTU21D;63509;45.250;38.102;2024-02-15T00:56:28;9.39;68.21
74946;HTU21D;63509;45.250;38.102;2024-02-15T00:58:56;9.35;68.23
74946;HTU21D;63509;45.250;38.102;2024-02-15T01:01:22;9.31;68.29
74946;HTU21D;63509;45.250;38.102;2024-02-15T01:03:49;9.26;68.34
74946;HTU21D;63509;45.250;38.102;2024-02-15T01:06:15;9.24;68.33
74946;HTU21D;63509;45.250;38.102;2024-02-15T01:08:41;9.20;68.38
74946;HTU21D;63509;45.250;38.102;2024-02-15T01:11:07;9.14;68.46
74946;HTU21D;63509;45.250;38.102;2024-02-15T01:13:33;9.11;68.49
74946;HTU21D;63509;45.250;38.102;2024-02-15T01:15:59;9.09;68.52
74946;HTU21D;63509;45.250;38.102;2024-02-15T01:18:29;9.06;68.63
74946;HTU21D;63509;45.250;38.102;2024-02-15T01:20:55;9.05;68.64
74946;HTU21D;63509;45.250;38.102;2024-02-15T01:23:22;9.05;68.65
74946;HTU21D;63509;45.250;38.102;2024-02-15T01:25:52;9.04;68.64
74946;HTU21D;63509;45.250;38.102;2024-02-15T01:28:19;9.02;68.68
74946;HTU21D;63509;45.250;38.102;2024-02-15T01:30:45;9.00;68.67
74946;HTU21D;63509;45.250;38.102;2024-02-15T01:33:12;8.96;68.73
74946;HTU21D;63509;45.250;38.102;2024-02-15T01:35:39;8.95;68.75
74946;HTU21D;63509;45.250;38.102;2024-02-15T01:38:05;8.95;68.80
74946;HTU21D;63509;45.250;38.102;2024-02-15T01:40:31;8.96;68.78
74946;HTU21D;63509;45.250;38.102;2024-02-15T01:42:58;8.97;68.78
74946;HTU21D;63509;45.250;38.102;2024-02-15T01:45:26;8.95;68.81
74946;HTU21D;63509;45.250;38.102;2024-02-15T01:47:54;8.94;68.82
74946;HTU21D;63509;45.250;38.102;2024-02-15T01:50:22;8.94;68.81
74946;HTU21D;63509;45.250;38.102;2024-02-15T01:52:49;8.92;68.81
74946;HTU21D;63509;45.250;38.102;2024-02-15T01:55:18;8.93;68.84
74946;HTU21D;63509;45.250;38.102;2024-02-15T01:57:45;8.90;68.84
74946;HTU21D;63509;45.250;38.102;2024-02-15T02:00:17;8.88;68.88
74946;HTU21D;63509;45.250;38.102;2024-02-15T02:02:45;8.89;68.90
74946;HTU21D;63509;45.250;38.102;2024-02-15T02:05:12;8.87;68.91
74946;HTU21D;63509;45.250;38.102;2024-02-15T02:07:38;8.86;68.87
74946;HTU21D;63509;45.250;38.102;2024-02-15T02:10:06;8.81;68.97
74946;HTU21D;63509;45.250;38.102;2024-02-15T02:12:33;8.75;69.03
74946;HTU21D;63509;45.250;38.102;2024-02-15T02:14:59;8.72;69.02
74946;HTU21D;63509;45.250;38.102;2024-02-15T02:17:25;8.68;69.04
74946;HTU21D;63509;45.250;38.102;2024-02-15T02:19:51;8.64;69.07
74946;HTU21D;63509;45.250;38.102;2024-02-15T02:22:18;8.63;69.13
74946;HTU21D;63509;45.250;38.102;2024-02-15T02:25:01;8.62;69.13
74946;HTU21D;63509;45.250;38.102;2024-02-15T02:27:27;8.62;69.13
74946;HTU21D;63509;45.250;38.102;2024-02-15T02:29:54;8.59;69.13
74946;HTU21D;63509;45.250;38.102;2024-02-15T02:32:21;8.60;69.17
74946;HTU21D;63509;45.250;38.102;2024-02-15T02:34:47;8.57;69.19
74946;HTU21D;63509;45.250;38.102;2024-02-15T02:37:13;8.53;69.24
74946;HTU21D;63509;45.250;38.102;2024-02-15T02:39:40;8.52;69.24
74946;HTU21D;63509;45.250;38.102;2024-02-15T02:42:08;8.50;69.26
74946;HTU21D;63509;45.250;38.102;2024-02-15T02:44:34;8.49;69.29
74946;HTU21D;63509;45.250;38.102;2024-02-15T02:47:01;8.47;69.33
74946;HTU21D;63509;45.250;38.102;2024-02-15T02:49:27;8.45;69.33
74946;HTU21D;63509;45.250;38.102;2024-02-15T02:51:53;8.42;69.34
74946;HTU21D;63509;45.250;38.102;2024-02-15T02:54:20;8.42;69.34
74946;HTU21D;63509;45.250;38.102;2024-02-15T02:56:46;8.41;69.34
74946;HTU21D;63509;45.250;38.102;2024-02-15T02:59:13;8.38;69.36
74946;HTU21D;63509;45.250;38.102;2024-02-15T03:01:39;8.36;69.41
74946;HTU21D;63509;45.250;38.102;2024-02-15T03:04:06;8.35;69.34
74946;HTU21D;63509;45.250;38.102;2024-02-15T03:06:33;8.35;69.37
74946;HTU21D;63509;45.250;38.102;2024-02-15T03:08:59;8.35;69.39
74946;HTU21D;63509;45.250;38.102;2024-02-15T03:11:25;8.34;69.39
74946;HTU21D;63509;45.250;38.102;2024-02-15T03:13:51;8.30;69.39
74946;HTU21D;63509;45.250;38.102;2024-02-15T03:16:22;8.24;69.42
74946;HTU21D;63509;45.250;38.102;2024-02-15T03:18:48;8.23;69.38
74946;HTU21D;63509;45.250;38.102;2024-02-15T03:21:14;8.20;69.37
74946;HTU21D;63509;45.250;38.102;2024-02-15T03:23:40;8.17;69.36
74946;HTU21D;63509;45.250;38.102;2024-02-15T03:26:08;8.14;69.37
74946;HTU21D;63509;45.250;38.102;2024-02-15T03:28:35;8.12;69.39
74946;HTU21D;63509;45.250;38.102;2024-02-15T03:31:02;8.08;69.38
74946;HTU21D;63509;45.250;38.102;2024-02-15T03:33:28;8.06;69.42
74946;HTU21D;63509;45.250;38.102;2024-02-15T03:35:59;8.06;69.43
74946;HTU21D;63509;45.250;38.102;2024-02-15T03:38:27;8.03;69.39
74946;HTU21D;63509;45.250;38.102;2024-02-15T03:40:55;7.99;69.39
74946;HTU21D;63509;45.250;38.102;2024-02-15T03:43:22;7.94;69.42
74946;HTU21D;63509;45.250;38.102;2024-02-15T03:45:49;7.89;69.42
74946;HTU21D;63509;45.250;38.102;2024-02-15T03:48:17;7.86;69.47
74946;HTU21D;63509;45.250;38.102;2024-02-15T03:50:44;7.81;69.54
74946;HTU21D;63509;45.250;38.102;2024-02-15T03:53:11;7.74;69.58
74946;HTU21D;63509;45.250;38.102;2024-02-15T03:55:37;7.71;69.62
74946;HTU21D;63509;45.250;38.102;2024-02-15T03:58:03;7.68;69.62
74946;HTU21D;63509;45.250;38.102;2024-02-15T04:00:29;7.64;69.69
74946;HTU21D;63509;45.250;38.102;2024-02-15T04:02:55;7.60;69.65
74946;HTU21D;63509;45.250;38.102;2024-02-15T04:05:22;7.59;69.70
74946;HTU21D;63509;45.250;38.102;2024-02-15T04:07:49;7.55;69.71
74946;HTU21D;63509;45.250;38.102;2024-02-15T04:10:15;7.53;69.73
74946;HTU21D;63509;45.250;38.102;2024-02-15T04:12:44;7.49;69.76
74946;HTU21D;63509;45.250;38.102;2024-02-15T04:15:11;7.48;69.76
74946;HTU21D;63509;45.250;38.102;2024-02-15T04:17:42;7.45;69.79
74946;HTU21D;63509;45.250;38.102;2024-02-15T04:20:10;7.42;69.83
74946;HTU21D;63509;45.250;38.102;2024-02-15T04:22:38;7.40;69.84
74946;HTU21D;63509;45.250;38.102;2024-02-15T04:25:07;7.38;69.83
74946;HTU21D;63509;45.250;38.102;2024-02-15T04:27:42;7.37;69.87
74946;HTU21D;63509;45.250;38.102;2024-02-15T04:30:09;7.35;69.86
74946;HTU21D;63509;45.250;38.102;2024-02-15T04:32:37;7.35;69.81
74946;HTU21D;63509;45.250;38.102;2024-02-15T04:35:03;7.33;69.83
74946;HTU21D;63509;45.250;38.102;2024-02-15T04:37:31;7.33;69.84
74946;HTU21D;63509;45.250;38.102;2024-02-15T04:39:58;7.33;69.83
74946;HTU21D;63509;45.250;38.102;2024-02-15T04:42:32;7.40;69.87
74946;HTU21D;63509;45.250;38.102;2024-02-15T04:45:06;7.43;69.84
74946;HTU21D;63509;45.250;38.102;2024-02-15T04:47:34;7.43;69.78
74946;HTU21D;63509;45.250;38.102;2024-02-15T04:50:01;7.40;69.76
74946;HTU21D;63509;45.250;38.102;2024-02-15T04:52:29;7.38;69.77
74946;HTU21D;63509;45.250;38.102;2024-02-15T04:54:56;7.37;69.79
74946;HTU21D;63509;45.250;38.102;2024-02-15T04:57:27;7.35;69.79
74946;HTU21D;63509;45.250;38.102;2024-02-15T04:59:56;7.34;69.80
74946;HTU21D;63509;45.250;38.102;2024-02-15T05:02:25;7.40;69.82
74946;HTU21D;63509;45.250;38.102;2024-02-15T05:04:51;7.41;69.69
74946;HTU21D;63509;45.250;38.102;2024-02-15T05:07:23;7.42;69.71
74946;HTU21D;63509;45.250;38.102;2024-02-15T05:09:49;7.41;0.00
74946;HTU21D;63509;45.250;38.102;2024-02-15T05:12:25;7.39;69.71
74946;HTU21D;63509;45.250;38.102;2024-02-15T05:14:55;7.37;69.66
74946;HTU21D;63509;45.250;38.102;2024-02-15T05:17:22;7.34;69.66
74946;HTU21D;63509;45.250;38.102;2024-02-15T05:19:49;7.31;69.65
74946;HTU21D;63509;45.250;38.102;2024-02-15T05:22:20;7.27;69.66
74946;HTU21D;63509;45.250;38.102;2024-02-15T05:24:48;7.24;69.65
74946;HTU21D;63509;45.250;38.102;2024-02-15T05:27:15;7.19;69.64
74946;HTU21D;63509;45.250;38.102;2024-02-15T05:29:42;7.15;69.72
74946;HTU21D;63509;45.250;38.102;2024-02-15T05:32:09;7.14;69.71
74946;HTU21D;63509;45.250;38.102;2024-02-15T05:34:37;7.12;69.73
74946;HTU21D;63509;45.250;38.102;2024-02-15T05:37:05;7.09;69.68
74946;HTU21D;63509;45.250;38.102;2024-02-15T05:39:33;7.01;69.68
74946;HTU21D;63509;45.250;38.102;2024-02-15T05:42:03;6.96;69.74
74946;HTU21D;63509;45.250;38.102;2024-02-15T05:44:31;6.93;69.78
74946;HTU21D;63509;45.250;38.102;2024-02-15T05:46:57;6.91;69.84
74946;HTU21D;63509;45.250;38.102;2024-02-15T05:49:24;6.88;69.84
74946;HTU21D;63509;45.250;38.102;2024-02-15T05:51:54;6.88;69.87
74946;HTU21D;63509;45.250;38.102;2024-02-15T05:54:21;6.86;69.86
74946;HTU21D;63509;45.250;38.102;2024-02-15T05:57:06;6.84;69.85
74946;HTU21D;63509;45.250;38.102;2024-02-15T05:59:53;6.83;69.89
74946;HTU21D;63509;45.250;38.102;2024-02-15T06:02:21;6.84;69.87
74946;HTU21D;63509;45.250;38.102;2024-02-15T06:04:47;6.88;69.86
74946;HTU21D;63509;45.250;38.102;2024-02-15T06:07:17;6.91;69.85
74946;HTU21D;63509;45.250;38.102;2024-02-15T06:09:45;6.93;69.82
74946;HTU21D;63509;45.250;38.102;2024-02-15T06:12:12;6.95;69.80
74946;HTU21D;63509;45.250;38.102;2024-02-15T06:14:40;6.93;69.80
74946;HTU21D;63509;45.250;38.102;2024-02-15T06:17:07;6.95;69.81
74946;HTU21D;63509;45.250;38.102;2024-02-15T06:19:35;6.96;69.78
74946;HTU21D;63509;45.250;38.102;2024-02-15T06:22:02;6.97;69.78
74946;HTU21D;63509;45.250;38.102;2024-02-15T06:24:30;7.00;69.74
74946;HTU21D;63509;45.250;38.102;2024-02-15T06:26:56;6.98;69.70
74946;HTU21D;63509;45.250;38.102;2024-02-15T06:29:26;6.98;69.72
74946;HTU21D;63509;45.250;38.102;2024-02-15T06:32:10;7.13;70.07
74946;HTU21D;63509;45.250;38.102;2024-02-15T06:34:55;7.35;70.04
74946;HTU21D;63509;45.250;38.102;2024-02-15T06:37:41;7.44;69.61
74946;HTU21D;63509;45.250;38.102;2024-02-15T06:40:26;7.38;69.52
74946;HTU21D;63509;45.250;38.102;2024-02-15T06:42:52;7.30;69.52
74946;HTU21D;63509;45.250;38.102;2024-02-15T06:45:18;7.24;69.54
74946;HTU21D;63509;45.250;38.102;2024-02-15T06:47:45;7.16;69.61
74946;HTU21D;63509;45.250;38.102;2024-02-15T06:50:12;7.10;69.68
74946;HTU21D;63509;45.250;38.102;2024-02-15T06:52:42;7.07;69.72
74946;HTU21D;63509;45.250;38.102;2024-02-15T06:55:09;7.03;69.71
74946;HTU21D;63509;45.250;38.102;2024-02-15T06:57:41;6.97;69.72
74946;HTU21D;63509;45.250;38.102;2024-02-15T07:00:09;6.88;69.78
74946;HTU21D;63509;45.250;38.102;2024-02-15T07:02:40;6.81;69.85
74946;HTU21D;63509;45.250;38.102;2024-02-15T07:05:07;6.78;69.95
74946;HTU21D;63509;45.250;38.102;2024-02-15T07:07:33;6.78;69.98
74946;HTU21D;63509;45.250;38.102;2024-02-15T07:10:00;6.76;69.97
74946;HTU21D;63509;45.250;38.102;2024-02-15T07:12:29;6.79;69.97
74946;HTU21D;63509;45.250;38.102;2024-02-15T07:14:58;6.79;69.96
74946;HTU21D;63509;45.250;38.102;2024-02-15T07:17:28;6.79;69.96
74946;HTU21D;63509;45.250;38.102;2024-02-15T07:19:54;6.80;69.94
74946;HTU21D;63509;45.250;38.102;2024-02-15T07:22:21;6.79;69.91
74946;HTU21D;63509;45.250;38.102;2024-02-15T07:24:48;6.78;69.88
74946;HTU21D;63509;45.250;38.102;2024-02-15T07:27:14;6.75;69.92
74946;HTU21D;63509;45.250;38.102;2024-02-15T07:29:40;6.76;70.00
74946;HTU21D;63509;45.250;38.102;2024-02-15T07:32:06;6.75;69.99
74946;HTU21D;63509;45.250;38.102;2024-02-15T07:34:34;6.78;69.99
74946;HTU21D;63509;45.250;38.102;2024-02-15T07:37:02;6.79;70.00
74946;HTU21D;63509;45.250;38.102;2024-02-15T07:39:29;6.81;70.02
74946;HTU21D;63509;45.250;38.102;2024-02-15T07:41:55;6.83;70.02
74946;HTU21D;63509;45.250;38.102;2024-02-15T07:44:24;6.86;69.98
74946;HTU21D;63509;45.250;38.102;2024-02-15T07:46:51;6.87;69.99
74946;HTU21D;63509;45.250;38.102;2024-02-15T07:49:17;6.87;70.02
74946;HTU21D;63509;45.250;38.102;2024-02-15T07:51:46;6.88;69.99
74946;HTU21D;63509;45.250;38.102;2024-02-15T07:54:19;6.91;70.00
74946;HTU21D;63509;45.250;38.102;2024-02-15T07:56:47;6.93;70.00
74946;HTU21D;63509;45.250;38.102;2024-02-15T07:59:16;6.94;70.01
74946;HTU21D;63509;45.250;38.102;2024-02-15T08:01:43;6.96;70.07
74946;HTU21D;63509;45.250;38.102;2024-02-15T08:04:11;6.97;70.05
74946;HTU21D;63509;45.250;38.102;2024-02-15T08:06:38;6.99;70.09
74946;HTU21D;63509;45.250;38.102;2024-02-15T08:09:04;7.01;70.09
74946;HTU21D;63509;45.250;38.102;2024-02-15T08:11:38;7.02;70.07
74946;HTU21D;63509;45.250;38.102;2024-02-15T08:14:06;7.07;70.10
74946;HTU21D;63509;45.250;38.102;2024-02-15T08:16:37;7.08;70.11
74946;HTU21D;63509;45.250;38.102;2024-02-15T08:19:03;7.12;70.13
74946;HTU21D;63509;45.250;38.102;2024-02-15T08:21:32;7.16;70.13
74946;HTU21D;63509;45.250;38.102;2024-02-15T08:24:03;7.18;70.13
74946;HTU21D;63509;45.250;38.102;2024-02-15T08:26:33;7.19;70.12
74946;HTU21D;63509;45.250;38.102;2024-02-15T08:29:01;7.23;70.13
74946;HTU21D;63509;45.250;38.102;2024-02-15T08:31:28;7.28;70.11
74946;HTU21D;63509;45.250;38.102;2024-02-15T08:33:57;7.32;70.14
74946;HTU21D;63509;45.250;38.102;2024-02-15T08:36:23;7.35;70.11
74946;HTU21D;63509;45.250;38.102;2024-02-15T08:38:51;7.39;70.10
74946;HTU21D;63509;45.250;38.102;2024-02-15T08:41:17;7.42;70.11
74946;HTU21D;63509;45.250;38.102;2024-02-15T08:43:46;7.44;70.11
74946;HTU21D;63509;45.250;38.102;2024-02-15T08:46:12;7.48;70.09
74946;HTU21D;63509;45.250;38.102;2024-02-15T08:48:38;7.52;70.09
74946;HTU21D;63509;45.250;38.102;2024-02-15T08:51:05;7.57;70.09
74946;HTU21D;63509;45.250;38.102;2024-02-15T08:53:35;7.61;70.04
74946;HTU21D;63509;45.250;38.102;2024-02-15T08:56:04;7.65;70.01
74946;HTU21D;63509;45.250;38.102;2024-02-15T08:58:32;7.69;70.03
74946;HTU21D;63509;45.250;38.102;2024-02-15T09:00:58;7.72;70.02
74946;HTU21D;63509;45.250;38.102;2024-02-15T09:03:24;7.73;69.97
74946;HTU21D;63509;45.250;38.102;2024-02-15T09:05:51;7.76;69.94
74946;HTU21D;63509;45.250;38.102;2024-02-15T09:08:17;7.81;69.91
74946;HTU21D;63509;45.250;38.102;2024-02-15T09:10:48;7.84;69.90
74946;HTU21D;63509;45.250;38.102;2024-02-15T09:13:15;7.86;69.84
74946;HTU21D;63509;45.250;38.102;2024-02-15T09:15:41;7.86;69.80
74946;HTU21D;63509;45.250;38.102;2024-02-15T09:18:08;7.86;69.76
74946;HTU21D;63509;45.250;38.102;2024-02-15T09:20:37;7.84;69.74
74946;HTU21D;63509;45.250;38.102;2024-02-15T09:23:03;7.83;69.71
74946;HTU21D;63509;45.250;38.102;2024-02-15T09:25:38;7.82;69.68
74946;HTU21D;63509;45.250;38.102;2024-02-15T09:28:04;7.82;69.66
74946;HTU21D;63509;45.250;38.102;2024-02-15T09:30:30;7.77;69.68
74946;HTU21D;63509;45.250;38.102;2024-02-15T09:32:57;7.75;69.67
74946;HTU21D;63509;45.250;38.102;2024-02-15T09:35:24;7.73;69.69
74946;HTU21D;63509;45.250;38.102;2024-02-15T09:37:51;7.74;69.72
74946;HTU21D;63509;45.250;38.102;2024-02-15T09:40:18;7.72;69.69
74946;HTU21D;63509;45.250;38.102;2024-02-15T09:42:46;7.70;69.68
74946;HTU21D;63509;45.250;38.102;2024-02-15T09:45:13;7.69;69.78
74946;HTU21D;63509;45.250;38.102;2024-02-15T09:47:41;7.70;69.81
74946;HTU21D;63509;45.250;38.102;2024-02-15T09:52:43;7.74;69.78
74946;HTU21D;63509;45.250;38.102;2024-02-15T09:55:11;7.76;69.76
74946;HTU21D;63509;45.250;38.102;2024-02-15T09:57:47;7.81;69.78
74946;HTU21D;63509;45.250;38.102;2024-02-15T10:00:13;7.85;69.74
74946;HTU21D;63509;45.250;38.102;2024-02-15T10:02:46;7.88;69.69
74946;HTU21D;63509;45.250;38.102;2024-02-15T10:05:13;7.90;69.67
74946;HTU21D;63509;45.250;38.102;2024-02-15T10:07:40;7.92;69.68
74946;HTU21D;63509;45.250;38.102;2024-02-15T10:10:27;7.96;69.65
74946;HTU21D;63509;45.250;38.102;2024-02-15T10:12:54;7.99;69.63
74946;HTU21D;63509;45.250;38.102;2024-02-15T10:15:37;8.03;69.58
74946;HTU21D;63509;45.250;38.102;2024-02-15T10:18:08;8.05;69.56
74946;HTU21D;63509;45.250;38.102;2024-02-15T10:20:37;8.08;69.51
74946;HTU21D;63509;45.250;38.102;2024-02-15T10:25:35;8.38;69.67
74946;HTU21D;63509;45.250;38.102;2024-02-15T10:28:09;8.42;69.39
74946;HTU21D;63509;45.250;38.102;2024-02-15T10:30:40;8.41;69.32
74946;HTU21D;63509;45.250;38.102;2024-02-15T10:33:10;8.41;69.27
74946;HTU21D;63509;45.250;38.102;2024-02-15T10:35:38;8.41;69.24
74946;HTU21D;63509;45.250;38.102;2024-02-15T10:38:12;8.37;69.20
74946;HTU21D;63509;45.250;38.102;2024-02-15T10:40:41;8.34;69.17
74946;HTU21D;63509;45.250;38.102;2024-02-15T10:43:09;8.32;69.21
74946;HTU21D;63509;45.250;38.102;2024-02-15T10:45:40;8.30;69.25
74946;HTU21D;63509;45.250;38.102;2024-02-15T10:48:10;8.28;69.25
74946;HTU21D;63509;45.250;38.102;2024-02-15T10:50:39;8.27;69.23
74946;HTU21D;63509;45.250;38.102;2024-02-15T10:53:27;8.29;69.29
74946;HTU21D;63509;45.250;38.102;2024-02-15T10:56:12;8.28;69.18
74946;HTU21D;63509;45.250;38.102;2024-02-15T10:58:47;8.24;69.17
74946;HTU21D;63509;45.250;38.102;2024-02-15T11:01:17;8.21;69.15
74946;HTU21D;63509;45.250;38.102;2024-02-15T11:03:52;8.20;69.16
74946;HTU21D;63509;45.250;38.102;2024-02-15T11:06:20;8.16;69.13
74946;HTU21D;63509;45.250;38.102;2024-02-15T11:08:48;8.13;69.16
74946;HTU21D;63509;45.250;38.102;2024-02-15T11:11:15;8.09;69.15
74946;HTU21D;63509;45.250;38.102;2024-02-15T11:13:42;8.07;69.15
74946;HTU21D;63509;45.250;38.102;2024-02-15T11:16:11;8.02;69.15
74946;HTU21D;63509;45.250;38.102;2024-02-15T11:18:57;7.98;69.16
74946;HTU21D;63509;45.250;38.102;2024-02-15T11:21:55;7.94;69.17
74946;HTU21D;63509;45.250;38.102;2024-02-15T11:24:31;7.91;69.20
74946;HTU21D;63509;45.250;38.102;2024-02-15T11:27:05;7.87;69.21
74946;HTU21D;63509;45.250;38.102;2024-02-15T11:29:58;7.83;69.23
74946;HTU21D;63509;45.250;38.102;2024-02-15T11:32:48;7.83;69.25
74946;HTU21D;63509;45.250;38.102;2024-02-15T11:35:20;7.82;69.23
74946;HTU21D;63509;45.250;38.102;2024-02-15T11:42:41;7.81;69.20
74946;HTU21D;63509;45.250;38.102;2024-02-15T11:45:07;7.78;69.20
74946;HTU21D;63509;45.250;38.102;2024-02-15T11:47:37;7.77;69.17
74946;HTU21D;63509;45.250;38.102;2024-02-15T11:50:15;7.75;69.16
74946;HTU21D;63509;45.250;38.102;2024-02-15T11:52:41;7.72;69.17
74946;HTU21D;63509;45.250;38.102;2024-02-15T11:55:12;7.69;69.23
74946;HTU21D;63509;45.250;38.102;2024-02-15T11:58:01;7.70;69.24
74946;HTU21D;63509;45.250;38.102;2024-02-15T12:00:32;7.65;69.20
74946;HTU21D;63509;45.250;38.102;2024-02-15T12:03:18;7.64;69.18
74946;HTU21D;63509;45.250;38.102;2024-02-15T12:06:03;7.58;69.21
74946;HTU21D;63509;45.250;38.102;2024-02-15T12:08:51;7.58;69.26
74946;HTU21D;63509;45.250;38.102;2024-02-15T12:11:36;7.56;69.23
74946;HTU21D;63509;45.250;38.102;2024-02-15T12:14:21;7.54;69.25
74946;HTU21D;63509;45.250;38.102;2024-02-15T12:17:13;7.52;69.24
74946;HTU21D;63509;45.250;38.102;2024-02-15T12:20:02;7.49;69.21
74946;HTU21D;63509;45.250;38.102;2024-02-15T12:22:44;7.46;69.23
74946;HTU21D;63509;45.250;38.102;2024-02-15T12:25:31;7.45;69.25
74946;HTU21D;63509;45.250;38.102;2024-02-15T12:27:59;7.44;69.21
74946;HTU21D;63509;45.250;38.102;2024-02-15T12:30:33;7.39;69.23
74946;HTU21D;63509;45.250;38.102;2024-02-15T12:33:12;7.35;69.24
74946;HTU21D;63509;45.250;38.102;2024-02-15T12:35:45;7.35;69.24
74946;HTU21D;63509;45.250;38.102;2024-02-15T12:38:12;7.35;69.23
74946;HTU21D;63509;45.250;38.102;2024-02-15T12:40:42;7.35;69.22
74946;HTU21D;63509;45.250;38.102;2024-02-15T12:43:09;7.35;69.20
74946;HTU21D;63509;45.250;38.102;2024-02-15T12:45:36;7.32;69.17
74946;HTU21D;63509;45.250;38.102;2024-02-15T12:48:04;7.27;69.16
74946;HTU21D;63509;45.250;38.102;2024-02-15T12:50:31;7.24;69.19
74946;HTU21D;63509;45.250;38.102;2024-02-15T12:52:58;7.20;69.15
74946;HTU21D;63509;45.250;38.102;2024-02-15T12:55:33;7.16;69.20
74946;HTU21D;63509;45.250;38.102;2024-02-15T12:58:04;7.13;69.21
74946;HTU21D;63509;45.250;38.102;2024-02-15T13:00:35;7.08;69.23
74946;HTU21D;63509;45.250;38.102;2024-02-15T13:03:09;7.05;69.25
74946;HTU21D;63509;45.250;38.102;2024-02-15T13:05:40;7.01;69.25
74946;HTU21D;63509;45.250;38.102;2024-02-15T13:08:07;7.01;69.25
74946;HTU21D;63509;45.250;38.102;2024-02-15T13:10:39;7.00;69.24
74946;HTU21D;63509;45.250;38.102;2024-02-15T13:13:05;7.00;69.25
74946;HTU21D;63509;45.250;38.102;2024-02-15T13:15:32;6.98;69.23
74946;HTU21D;63509;45.250;38.102;2024-02-15T13:18:02;6.95;69.23
74946;HTU21D;63509;45.250;38.102;2024-02-15T13:20:35;6.93;69.24
74946;HTU21D;63509;45.250;38.102;2024-02-15T13:23:04;6.89;69.27
74946;HTU21D;63509;45.250;38.102;2024-02-15T13:25:37;6.88;69.29
74946;HTU21D;63509;45.250;38.102;2024-02-15T13:28:05;6.88;69.33
74946;HTU21D;63509;45.250;38.102;2024-02-15T13:30:32;6.90;69.31
74946;HTU21D;63509;45.250;38.102;2024-02-15T13:32:58;6.88;69.27
74946;HTU21D;63509;45.250;38.102;2024-02-15T13:35:25;6.84;69.26
74946;HTU21D;63509;45.250;38.102;2024-02-15T13:37:55;6.81;69.32
74946;HTU21D;63509;45.250;38.102;2024-02-15T13:40:24;6.76;69.33
74946;HTU21D;63509;45.250;38.102;2024-02-15T13:42:56;6.72;69.33
74946;HTU21D;63509;45.250;38.102;2024-02-15T13:45:29;6.68;69.33
74946;HTU21D;63509;45.250;38.102;2024-02-15T13:47:59;6.63;69.37
74946;HTU21D;63509;45.250;38.102;2024-02-15T13:50:29;6.59;69.38
74946;HTU21D;63509;45.250;38.102;2024-02-15T13:52:59;6.54;69.36
74946;HTU21D;63509;45.250;38.102;2024-02-15T13:55:25;6.50;69.42
74946;HTU21D;63509;45.250;38.102;2024-02-15T13:57:52;6.44;69.45
74946;HTU21D;63509;45.250;38.102;2024-02-15T14:00:19;6.41;69.52
74946;HTU21D;63509;45.250;38.102;2024-02-15T14:02:52;6.37;69.55
74946;HTU21D;63509;45.250;38.102;2024-02-15T14:05:23;6.35;69.55
74946;HTU21D;63509;45.250;38.102;2024-02-15T14:07:59;6.31;69.57
74946;HTU21D;63509;45.250;38.102;2024-02-15T14:10:28;6.29;69.58
74946;HTU21D;63509;45.250;38.102;2024-02-15T14:12:55;6.27;69.56
74946;HTU21D;63509;45.250;38.102;2024-02-15T14:15:22;6.23;69.58
74946;HTU21D;63509;45.250;38.102;2024-02-15T14:17:48;6.21;69.64
74946;HTU21D;63509;45.250;38.102;2024-02-15T14:20:15;6.20;69.66
74946;HTU21D;63509;45.250;38.102;2024-02-15T14:22:46;6.19;69.64
74946;HTU21D;63509;45.250;38.102;2024-02-15T14:25:18;6.16;69.63
74946;HTU21D;63509;45.250;38.102;2024-02-15T14:27:45;6.14;69.60
74946;HTU21D;63509;45.250;38.102;2024-02-15T14:30:14;6.13;69.61
74946;HTU21D;63509;45.250;38.102;2024-02-15T14:32:59;6.08;69.60
74946;HTU21D;63509;45.250;38.102;2024-02-15T14:35:38;6.05;69.63
74946;HTU21D;63509;45.250;38.102;2024-02-15T14:38:09;6.00;69.69
74946;HTU21D;63509;45.250;38.102;2024-02-15T14:40:41;5.97;69.74
74946;HTU21D;63509;45.250;38.102;2024-02-15T14:43:09;5.95;69.75
74946;HTU21D;63509;45.250;38.102;2024-02-15T14:45:39;5.93;69.75
74946;HTU21D;63509;45.250;38.102;2024-02-15T14:48:09;5.94;69.74
74946;HTU21D;63509;45.250;38.102;2024-02-15T14:50:39;5.92;69.83
74946;HTU21D;63509;45.250;38.102;2024-02-15T14:53:09;5.96;69.81
74946;HTU21D;63509;45.250;38.102;2024-02-15T14:55:36;5.91;69.74
74946;HTU21D;63509;45.250;38.102;2024-02-15T14:58:11;5.81;69.78
74946;HTU21D;63509;45.250;38.102;2024-02-15T15:00:39;5.79;69.81
74946;HTU21D;63509;45.250;38.102;2024-02-15T15:03:45;5.75;69.87
74946;HTU21D;63509;45.250;38.102;2024-02-15T15:06:27;5.71;69.87
74946;HTU21D;63509;45.250;38.102;2024-02-15T15:09:35;5.66;69.94
74946;HTU21D;63509;45.250;38.102;2024-02-15T15:12:49;5.61;69.94
74946;HTU21D;63509;45.250;38.102;2024-02-15T15:15:34;5.59;69.96
74946;HTU21D;63509;45.250;38.102;2024-02-15T15:18:06;5.55;69.96
74946;HTU21D;63509;45.250;38.102;2024-02-15T15:20:34;5.51;69.97
74946;HTU21D;63509;45.250;38.102;2024-02-15T15:23:10;5.49;69.98
74946;HTU21D;63509;45.250;38.102;2024-02-15T15:29:12;5.40;70.02
74946;HTU21D;63509;45.250;38.102;2024-02-15T15:31:43;5.34;70.00
74946;HTU21D;63509;45.250;38.102;2024-02-15T15:34:11;5.32;70.07
74946;HTU21D;63509;45.250;38.102;2024-02-15T15:36:38;5.30;69.99
74946;HTU21D;63509;45.250;38.102;2024-02-15T15:39:05;5.24;70.04
74946;HTU21D;63509;45.250;38.102;2024-02-15T15:41:38;5.22;70.07
74946;HTU21D;63509;45.250;38.102;2024-02-15T15:44:04;5.19;70.08
74946;HTU21D;63509;45.250;38.102;2024-02-15T15:46:31;5.16;70.10